createdAt,value
2019-03-18T00:02:01.554Z,54.40
2019-03-18T00:04:29.751Z,52.70
2019-03-18T00:06:57.831Z,51.90
2019-03-18T00:12:43.433Z,54.90
2019-03-18T00:15:11.423Z,52.00
2019-03-18T00:17:47.421Z,51.90
2019-03-18T00:20:15.759Z,51.90
2019-03-18T00:22:43.923Z,51.50
2019-03-18T00:28:33.076Z,50.90
2019-03-18T00:31:01.904Z,50.90
2019-03-18T00:33:30.111Z,50.10
2019-03-18T00:35:58.473Z,49.90
2019-03-18T00:42:08.598Z,49.20
2019-03-18T00:44:36.937Z,49.10
2019-03-18T00:47:57.598Z,49.10
2019-03-18T00:51:10.459Z,49.20
2019-03-18T00:53:38.381Z,47.90
2019-03-18T00:56:05.846Z,47.50
2019-03-18T00:58:33.400Z,47.30
2019-03-18T01:01:01.113Z,47.50
2019-03-18T01:03:29.191Z,46.80
2019-03-18T01:05:59.987Z,45.70
2019-03-18T01:08:29.365Z,46.30
2019-03-18T01:10:59.098Z,46.80
2019-03-18T01:13:44.170Z,46.40
2019-03-18T01:16:14.188Z,46.50
2019-03-18T01:18:42.818Z,46.40
2019-03-18T01:21:11.531Z,46.60
2019-03-18T01:23:40.165Z,46.70
2019-03-18T01:26:10.780Z,46.90
2019-03-18T01:28:40.648Z,46.90
2019-03-18T01:31:08.300Z,47.90
2019-03-18T01:33:39.352Z,47.00
2019-03-18T01:36:10.034Z,46.70
2019-03-18T01:38:39.757Z,47.10
2019-03-18T01:41:11.269Z,47.30
2019-03-18T01:43:41.387Z,47.30
2019-03-18T01:46:26.083Z,46.80
2019-03-18T01:48:59.803Z,46.90
2019-03-18T01:58:39.317Z,46.30
2019-03-18T02:01:07.061Z,46.50
2019-03-18T02:03:34.687Z,47.10
2019-03-18T02:06:02.414Z,47.20
2019-03-18T02:08:30.024Z,49.20
2019-03-18T02:10:57.673Z,51.00
2019-03-18T02:13:25.399Z,54.80
2019-03-18T02:15:58.628Z,61.30
2019-03-18T02:18:38.750Z,64.90
2019-03-18T02:24:36.567Z,68.60
2019-03-18T02:27:49.041Z,70.60
2019-03-18T02:30:31.999Z,72.70
2019-03-18T02:33:11.739Z,73.60
2019-03-18T02:35:53.575Z,70.40
2019-03-18T02:38:32.907Z,71.00
2019-03-18T02:41:09.610Z,72.40
2019-03-18T02:43:42.914Z,71.50
2019-03-18T02:46:17.057Z,71.10
2019-03-18T02:48:51.122Z,70.40
2019-03-18T02:51:32.379Z,70.00
2019-03-18T02:54:09.661Z,71.50
2019-03-18T03:01:12.291Z,76.80
2019-03-18T03:04:04.465Z,76.80
2019-03-18T03:06:51.727Z,78.20
2019-03-18T03:09:59.492Z,77.90
2019-03-18T03:12:52.913Z,79.20
2019-03-18T03:15:22.821Z,78.30
2019-03-18T03:17:50.923Z,77.00
2019-03-18T03:20:22.748Z,77.50
2019-03-18T03:22:52.830Z,76.90
2019-03-18T03:25:25.333Z,76.10
2019-03-18T03:27:53.520Z,76.80
2019-03-18T03:30:24.547Z,74.60
2019-03-18T03:32:52.757Z,74.50
2019-03-18T03:35:20.601Z,74.70
2019-03-18T03:37:48.526Z,76.10
2019-03-18T03:40:16.822Z,74.60
2019-03-18T03:42:44.800Z,75.30
2019-03-18T03:45:12.964Z,75.70
2019-03-18T03:47:40.824Z,78.00
2019-03-18T03:50:08.933Z,77.70
2019-03-18T03:52:36.611Z,77.40
2019-03-18T03:55:04.585Z,79.20
2019-03-18T03:57:32.289Z,75.50
2019-03-18T04:00:00.472Z,76.20
2019-03-18T04:02:28.275Z,75.60
2019-03-18T04:04:55.938Z,74.10
2019-03-18T04:07:23.489Z,71.70
2019-03-18T04:09:51.071Z,71.70
2019-03-18T04:12:18.696Z,71.90
2019-03-18T04:14:46.245Z,72.40
2019-03-18T04:17:14.106Z,69.30
2019-03-18T04:19:41.715Z,70.00
2019-03-18T04:22:09.347Z,70.50
2019-03-18T04:24:37.075Z,70.20
2019-03-18T04:27:04.716Z,71.60
2019-03-18T04:29:32.343Z,71.10
2019-03-18T04:31:59.910Z,70.70
2019-03-18T04:34:27.490Z,71.90
2019-03-18T04:36:55.118Z,73.60
2019-03-18T04:39:22.764Z,72.80
2019-03-18T04:41:50.404Z,74.20
2019-03-18T04:44:18.376Z,73.30
2019-03-18T04:46:46.042Z,72.70
2019-03-18T04:49:13.613Z,73.40
2019-03-18T04:51:41.202Z,74.20
2019-03-18T04:54:08.875Z,72.80
2019-03-18T04:56:36.412Z,73.50
2019-03-18T04:59:03.994Z,74.50
2019-03-18T05:01:31.578Z,75.50
2019-03-18T05:03:59.140Z,75.10
2019-03-18T05:06:26.726Z,75.40
2019-03-18T05:08:55.177Z,74.60
2019-03-18T05:11:22.757Z,74.80
2019-03-18T05:13:50.530Z,74.60
2019-03-18T05:16:18.143Z,72.90
2019-03-18T05:18:45.775Z,74.80
2019-03-18T05:21:13.341Z,75.50
2019-03-18T05:23:40.944Z,70.90
2019-03-18T05:26:08.628Z,72.10
2019-03-18T05:28:36.141Z,68.10
2019-03-18T05:31:03.790Z,67.40
2019-03-18T05:33:31.411Z,69.30
2019-03-18T05:35:58.993Z,68.50
2019-03-18T05:38:26.600Z,68.10
2019-03-18T05:40:54.230Z,67.30
2019-03-18T05:43:21.755Z,68.30
2019-03-18T05:45:49.351Z,68.30
2019-03-18T05:48:16.943Z,67.40
2019-03-18T05:50:44.497Z,68.40
2019-03-18T05:53:12.091Z,67.00
2019-03-18T05:55:39.668Z,67.60
2019-03-18T05:58:07.263Z,67.90
2019-03-18T06:00:34.855Z,66.50
2019-03-18T06:03:02.433Z,67.60
2019-03-18T06:05:30.188Z,66.60
2019-03-18T06:07:57.803Z,67.00
2019-03-18T06:10:25.408Z,66.20
2019-03-18T06:12:53.013Z,66.70
2019-03-18T06:15:20.606Z,64.20
2019-03-18T06:17:52.774Z,65.40
2019-03-18T06:20:17.529Z,63.60
2019-03-18T06:22:45.138Z,62.80
2019-03-18T06:25:12.770Z,62.50
2019-03-18T06:27:40.378Z,61.80
2019-03-18T06:30:08.527Z,62.10
2019-03-18T06:32:36.124Z,62.40
2019-03-18T06:35:04.081Z,62.70
2019-03-18T06:37:31.625Z,61.70
2019-03-18T06:39:59.184Z,62.50
2019-03-18T06:42:26.783Z,61.90
2019-03-18T06:44:54.463Z,62.00
2019-03-18T06:47:22.048Z,62.50
2019-03-18T06:49:49.660Z,62.70
2019-03-18T06:52:17.302Z,62.20
2019-03-18T06:54:44.904Z,60.70
2019-03-18T06:57:12.690Z,60.40
2019-03-18T06:59:40.558Z,60.10
2019-03-18T07:02:08.563Z,61.20
2019-03-18T07:04:36.368Z,60.40
2019-03-18T07:07:03.964Z,60.10
2019-03-18T07:09:31.561Z,59.90
2019-03-18T07:11:59.190Z,60.60
2019-03-18T07:14:26.854Z,59.90
2019-03-18T07:16:54.433Z,59.50
2019-03-18T07:19:22.042Z,59.20
2019-03-18T07:21:49.651Z,59.70
2019-03-18T07:24:17.200Z,60.20
2019-03-18T07:26:45.071Z,60.40
2019-03-18T07:29:12.835Z,58.20
2019-03-18T07:31:40.620Z,58.80
2019-03-18T07:34:08.362Z,59.10
2019-03-18T07:36:36.045Z,59.10
2019-03-18T07:39:06.164Z,59.50
2019-03-18T07:41:33.756Z,59.30
2019-03-18T07:44:01.747Z,59.50
2019-03-18T07:46:29.464Z,59.10
2019-03-18T07:48:57.250Z,58.20
2019-03-18T07:51:24.831Z,58.30
2019-03-18T07:53:52.598Z,58.80
2019-03-18T07:56:20.341Z,58.40
2019-03-18T07:58:48.104Z,58.80
2019-03-18T08:01:15.961Z,58.50
2019-03-18T08:03:43.614Z,58.90
2019-03-18T08:06:11.321Z,63.40
2019-03-18T08:08:39.381Z,59.40
2019-03-18T08:11:07.344Z,60.00
2019-03-18T08:13:34.825Z,59.20
2019-03-18T08:16:02.575Z,58.00
2019-03-18T08:18:42.504Z,57.40
2019-03-18T08:21:00.512Z,57.30
2019-03-18T08:23:28.034Z,57.40
2019-03-18T08:25:55.609Z,57.40
2019-03-18T08:28:23.684Z,57.30
2019-03-18T08:30:51.319Z,56.80
2019-03-18T08:33:20.760Z,56.20
2019-03-18T08:35:48.400Z,56.50
2019-03-18T08:38:16.045Z,56.30
2019-03-18T08:40:43.618Z,56.00
2019-03-18T08:43:11.192Z,56.20
2019-03-18T08:45:38.765Z,56.00
2019-03-18T08:48:06.418Z,55.90
2019-03-18T08:50:34.119Z,55.70
2019-03-18T08:53:01.681Z,54.90
2019-03-18T08:55:29.231Z,55.10
2019-03-18T08:57:56.860Z,53.70
2019-03-18T09:00:24.404Z,53.60
2019-03-18T09:02:52.064Z,53.20
2019-03-18T09:05:19.924Z,53.60
2019-03-18T09:07:54.936Z,53.50
2019-03-18T09:10:23.235Z,53.90
2019-03-18T09:12:50.943Z,53.20
2019-03-18T09:15:18.952Z,54.50
2019-03-18T09:17:46.764Z,54.70
2019-03-18T09:20:14.622Z,54.10
2019-03-18T09:22:43.188Z,52.40
2019-03-18T09:25:11.439Z,53.60
2019-03-18T09:27:39.068Z,53.00
2019-03-18T09:30:08.307Z,52.40
2019-03-18T09:32:35.990Z,53.20
2019-03-18T09:35:03.766Z,52.40
2019-03-18T09:37:31.550Z,57.50
2019-03-18T09:39:59.197Z,59.30
2019-03-18T09:42:26.843Z,59.10
2019-03-18T09:44:54.529Z,58.70
2019-03-18T09:47:22.202Z,59.20
2019-03-18T09:49:50.398Z,66.80
2019-03-18T09:52:18.428Z,66.80
2019-03-18T09:54:46.392Z,70.20
2019-03-18T09:57:25.520Z,68.80
2019-03-18T09:59:45.170Z,73.40
2019-03-18T10:02:13.462Z,77.10
2019-03-18T10:04:41.337Z,79.00
2019-03-18T10:07:09.268Z,78.90
2019-03-18T10:09:37.335Z,78.30
2019-03-18T10:12:05.411Z,81.90
2019-03-18T10:14:33.439Z,80.60
2019-03-18T10:17:09.439Z,82.20
2019-03-18T10:19:33.790Z,83.00
2019-03-18T10:22:01.481Z,85.80
2019-03-18T10:24:29.589Z,84.00
2019-03-18T10:26:57.661Z,84.40
2019-03-18T10:29:25.595Z,86.50
2019-03-18T10:31:53.629Z,86.60
2019-03-18T10:34:23.258Z,86.70
2019-03-18T10:36:54.262Z,87.00
2019-03-18T10:39:22.629Z,86.20
2019-03-18T10:41:50.852Z,86.20
2019-03-18T10:44:19.052Z,88.50
2019-03-18T10:46:47.451Z,85.70
2019-03-18T10:49:17.791Z,85.10
2019-03-18T10:54:31.072Z,84.40
2019-03-18T10:56:58.803Z,84.20
2019-03-18T10:59:27.114Z,84.70
2019-03-18T11:01:55.146Z,85.30
2019-03-18T11:04:23.402Z,84.10
2019-03-18T11:06:50.998Z,83.50
2019-03-18T11:09:18.562Z,83.60
2019-03-18T11:11:46.206Z,83.90
2019-03-18T11:14:13.720Z,84.80
2019-03-18T11:16:41.267Z,84.10
2019-03-18T11:19:08.797Z,84.00
2019-03-18T11:21:36.324Z,85.10
2019-03-18T11:24:03.870Z,83.50
2019-03-18T11:26:31.390Z,83.90
2019-03-18T11:28:58.937Z,83.80
2019-03-18T11:31:26.521Z,82.30
2019-03-18T11:33:54.045Z,82.80
2019-03-18T11:36:21.616Z,83.30
2019-03-18T11:38:49.248Z,81.40
2019-03-18T11:41:17.604Z,81.50
2019-03-18T11:43:45.314Z,82.00
2019-03-18T11:46:12.913Z,80.90
2019-03-18T11:48:40.460Z,80.70
2019-03-18T11:51:07.970Z,79.60
2019-03-18T11:53:35.575Z,80.40
2019-03-18T11:56:03.260Z,78.40
2019-03-18T11:58:30.795Z,77.10
2019-03-18T12:00:58.554Z,77.40
2019-03-18T12:03:26.049Z,77.40
2019-03-18T12:05:53.608Z,77.00
2019-03-18T12:08:21.240Z,76.00
2019-03-18T12:10:48.915Z,75.50
2019-03-18T12:13:16.460Z,76.30
2019-03-18T12:15:44.077Z,76.70
2019-03-18T12:18:11.726Z,75.20
2019-03-18T12:20:39.335Z,73.70
2019-03-18T12:23:06.878Z,74.70
2019-03-18T12:25:34.532Z,74.90
2019-03-18T12:28:05.005Z,74.60
2019-03-18T12:30:31.524Z,72.90
2019-03-18T12:32:59.214Z,73.80
2019-03-18T12:35:26.812Z,73.30
2019-03-18T12:37:54.442Z,73.20
2019-03-18T12:40:22.155Z,73.20
2019-03-18T12:42:49.714Z,71.90
2019-03-18T12:45:17.221Z,72.30
2019-03-18T12:47:44.903Z,72.00
2019-03-18T12:50:13.765Z,71.30
2019-03-18T12:52:41.301Z,70.30
2019-03-18T12:55:11.042Z,70.30
2019-03-18T12:57:38.679Z,70.30
2019-03-18T13:00:09.582Z,70.30
2019-03-18T13:02:37.270Z,70.10
2019-03-18T13:05:05.353Z,70.80
2019-03-18T13:07:32.890Z,69.80
2019-03-18T13:10:00.767Z,69.20
2019-03-18T13:12:28.659Z,69.90
2019-03-18T13:14:56.217Z,66.80
2019-03-18T13:17:23.744Z,69.10
2019-03-18T13:19:51.401Z,69.40
2019-03-18T13:22:18.977Z,69.50
2019-03-18T13:24:46.524Z,69.80
2019-03-18T13:27:14.087Z,68.80
2019-03-18T13:29:41.633Z,69.10
2019-03-18T13:32:09.208Z,70.20
2019-03-18T13:34:36.725Z,70.80
2019-03-18T13:37:42.472Z,70.40
2019-03-18T13:40:11.023Z,70.10
2019-03-18T13:42:38.584Z,70.00
2019-03-18T13:45:07.974Z,69.80
2019-03-18T13:47:35.987Z,71.20
2019-03-18T13:50:03.872Z,71.50
2019-03-18T13:52:32.113Z,70.90
2019-03-18T13:54:59.674Z,71.20
2019-03-18T13:57:29.027Z,72.00
2019-03-18T13:59:56.680Z,71.60
2019-03-18T14:02:24.293Z,72.60
2019-03-18T14:04:51.846Z,71.60
2019-03-18T14:07:22.543Z,72.40
2019-03-18T14:09:56.128Z,73.10
2019-03-18T14:12:25.225Z,72.70
2019-03-18T14:14:56.265Z,73.50
2019-03-18T14:17:26.951Z,71.30
2019-03-18T14:19:56.202Z,70.80
2019-03-18T14:22:24.943Z,71.90
2019-03-18T14:24:54.241Z,71.00
2019-03-18T14:27:24.595Z,72.10
2019-03-18T14:29:56.319Z,70.90
2019-03-18T14:32:27.533Z,71.30
2019-03-18T14:34:59.745Z,71.80
2019-03-18T14:37:33.653Z,72.10
2019-03-18T14:40:31.745Z,72.10
2019-03-18T14:43:08.499Z,72.20
2019-03-18T14:45:49.295Z,72.00
2019-03-18T14:49:03.029Z,72.20
2019-03-18T14:51:55.192Z,71.20
2019-03-18T14:57:48.900Z,70.80
2019-03-18T15:00:21.821Z,71.90
2019-03-18T15:06:11.106Z,70.00
2019-03-18T15:09:07.358Z,69.80
2019-03-18T15:11:54.887Z,70.60
2019-03-18T15:14:26.290Z,71.10
2019-03-18T15:16:53.911Z,70.70
2019-03-18T15:19:21.449Z,71.10
2019-03-18T15:21:57.995Z,71.60
2019-03-18T15:24:18.750Z,72.10
2019-03-18T15:26:47.204Z,72.70
2019-03-18T15:29:16.020Z,73.00
2019-03-18T15:31:44.977Z,72.70
2019-03-18T15:34:14.608Z,72.50
2019-03-18T15:36:45.498Z,72.30
2019-03-18T15:39:15.109Z,72.40
2019-03-18T15:41:48.651Z,72.70
2019-03-18T15:44:41.019Z,72.40
2019-03-18T15:47:14.833Z,73.80
2019-03-18T15:52:12.167Z,73.00
2019-03-18T15:55:06.440Z,73.10
2019-03-18T15:57:38.280Z,73.60
2019-03-18T16:00:08.192Z,73.90
2019-03-18T16:02:35.997Z,74.20
2019-03-18T16:05:04.053Z,75.30
2019-03-18T16:07:31.730Z,74.50
2019-03-18T16:09:59.344Z,74.50
2019-03-18T16:12:27.045Z,75.00
2019-03-18T16:14:54.692Z,76.40
2019-03-18T16:17:22.311Z,75.60
2019-03-18T16:19:49.946Z,75.70
2019-03-18T16:22:23.376Z,76.70
2019-03-18T16:24:46.993Z,77.00
2019-03-18T16:27:14.634Z,77.40
2019-03-18T16:29:42.289Z,77.10
2019-03-18T16:32:11.656Z,77.20
2019-03-18T16:34:39.426Z,77.70
2019-03-18T16:37:07.026Z,77.70
2019-03-18T16:39:34.717Z,77.30
2019-03-18T16:42:02.294Z,76.70
2019-03-18T16:44:29.927Z,76.90
2019-03-18T16:46:57.520Z,77.30
2019-03-18T16:49:25.117Z,77.90
2019-03-18T16:51:52.845Z,77.10
2019-03-18T16:54:20.422Z,76.90
2019-03-18T16:56:48.081Z,77.00
2019-03-18T16:59:15.866Z,76.90
2019-03-18T17:01:43.425Z,77.50
2019-03-18T17:04:11.080Z,77.60
2019-03-18T17:06:38.713Z,77.30
2019-03-18T17:09:06.842Z,77.70
2019-03-18T17:11:34.566Z,78.00
2019-03-18T17:14:02.869Z,78.10
2019-03-18T17:16:30.705Z,78.40
2019-03-18T17:18:58.277Z,78.70
2019-03-18T17:21:25.954Z,79.20
2019-03-18T17:23:53.561Z,80.00
2019-03-18T17:26:21.156Z,80.20
2019-03-18T17:28:49.015Z,80.50
2019-03-18T17:31:17.391Z,79.80
2019-03-18T17:33:56.751Z,80.90
2019-03-18T17:36:24.814Z,80.60
2019-03-18T17:38:53.420Z,82.90
2019-03-18T17:41:20.950Z,82.10
2019-03-18T17:43:48.714Z,81.80
2019-03-18T17:46:16.389Z,81.70
2019-03-18T17:48:44.085Z,82.10
2019-03-18T17:51:11.776Z,81.90
2019-03-18T17:53:39.397Z,81.70
2019-03-18T17:56:06.961Z,81.60
2019-03-18T17:58:34.471Z,81.70
2019-03-18T18:01:02.210Z,81.90
2019-03-18T18:03:29.828Z,81.80
2019-03-18T18:05:57.509Z,82.30
2019-03-18T18:08:25.069Z,82.10
2019-03-18T18:10:52.844Z,82.10
2019-03-18T18:13:20.763Z,82.60
2019-03-18T18:15:48.477Z,82.40
2019-03-18T18:18:16.185Z,82.40
2019-03-18T18:20:43.788Z,82.30
2019-03-18T18:23:14.709Z,82.80
2019-03-18T18:25:40.918Z,82.70
2019-03-18T18:28:08.576Z,83.20
2019-03-18T18:30:36.228Z,83.40
2019-03-18T18:33:07.925Z,83.30
2019-03-18T18:35:35.617Z,83.60
2019-03-18T18:38:03.280Z,83.60
2019-03-18T18:40:31.643Z,83.90
2019-03-18T18:42:59.280Z,84.00
2019-03-18T18:45:27.968Z,83.70
2019-03-18T18:47:55.733Z,83.70
2019-03-18T18:50:23.283Z,84.00
2019-03-18T18:52:50.900Z,84.30
2019-03-18T18:55:18.542Z,84.30
2019-03-18T18:57:48.219Z,84.50
2019-03-18T19:00:15.994Z,84.50
2019-03-18T19:02:43.826Z,84.70
2019-03-18T19:05:12.113Z,84.10
2019-03-18T19:07:39.814Z,84.20
2019-03-18T19:10:08.388Z,84.40
2019-03-18T19:12:36.323Z,85.10
2019-03-18T19:15:11.577Z,85.20
2019-03-18T19:17:39.445Z,85.70
2019-03-18T19:20:07.957Z,85.10
2019-03-18T19:22:35.537Z,85.10
2019-03-18T19:25:03.856Z,85.70
2019-03-18T19:27:31.569Z,84.30
2019-03-18T19:29:59.249Z,85.40
2019-03-18T19:32:27.015Z,83.70
2019-03-18T19:34:54.770Z,84.20
2019-03-18T19:37:22.639Z,84.10
2019-03-18T19:39:50.246Z,84.80
2019-03-18T19:42:18.135Z,85.80
2019-03-18T19:44:45.816Z,85.60
2019-03-18T19:47:13.436Z,85.80
2019-03-18T19:49:40.988Z,85.10
2019-03-18T19:52:08.628Z,85.70
2019-03-18T19:54:37.369Z,85.60
2019-03-18T19:57:04.936Z,85.70
2019-03-18T19:59:32.541Z,86.50
2019-03-18T20:02:00.221Z,86.30
2019-03-18T20:04:27.904Z,86.80
2019-03-18T20:06:55.487Z,87.50
2019-03-18T20:09:23.184Z,87.20
2019-03-18T20:11:51.172Z,87.80
2019-03-18T20:14:18.712Z,88.30
2019-03-18T20:16:46.329Z,89.00
2019-03-18T20:19:13.966Z,88.50
2019-03-18T20:21:48.360Z,87.60
2019-03-18T20:24:15.970Z,87.90
2019-03-18T20:26:43.541Z,88.10
2019-03-18T20:29:11.198Z,88.50
2019-03-18T20:31:38.846Z,88.60
2019-03-18T20:34:06.556Z,89.00
2019-03-18T20:36:34.125Z,88.60
2019-03-18T20:39:11.147Z,89.20
2019-03-18T20:41:38.715Z,89.40
2019-03-18T20:44:06.313Z,89.40
2019-03-18T20:46:34.076Z,90.00
2019-03-18T20:49:01.698Z,90.10
2019-03-18T20:51:29.316Z,90.10
2019-03-18T20:53:57.035Z,90.10
2019-03-18T20:56:24.601Z,91.20
2019-03-18T20:58:52.202Z,91.30
2019-03-18T21:01:20.063Z,91.00
2019-03-18T21:03:48.000Z,91.30
2019-03-18T21:06:15.588Z,91.70
2019-03-18T21:08:43.594Z,92.20
2019-03-18T21:11:12.275Z,92.10
2019-03-18T21:13:40.031Z,91.30
2019-03-18T21:16:07.846Z,91.60
2019-03-18T21:18:37.534Z,91.10
2019-03-18T21:21:05.145Z,91.10
2019-03-18T21:23:32.750Z,91.00
2019-03-18T21:26:00.341Z,90.90
2019-03-18T21:28:28.014Z,91.50
2019-03-18T21:30:55.872Z,91.80
2019-03-18T21:33:23.397Z,91.80
2019-03-18T21:35:53.650Z,91.60
2019-03-18T21:38:20.685Z,92.00
2019-03-18T21:40:49.341Z,91.40
2019-03-18T21:43:16.937Z,91.60
2019-03-18T21:45:45.424Z,92.60
2019-03-18T21:48:14.095Z,91.80
2019-03-18T21:50:41.673Z,91.60
2019-03-18T21:53:09.322Z,91.60
2019-03-18T21:55:37.006Z,91.80
2019-03-18T21:58:04.677Z,92.10
2019-03-18T22:00:32.288Z,92.50
2019-03-18T22:02:59.845Z,92.30
2019-03-18T22:05:27.439Z,92.70
2019-03-18T22:07:55.034Z,93.10
2019-03-18T22:10:22.573Z,92.70
2019-03-18T22:12:50.129Z,92.60
2019-03-18T22:15:17.734Z,92.00
2019-03-18T22:17:45.477Z,91.50
2019-03-18T22:20:13.414Z,91.70
2019-03-18T22:22:41.040Z,91.90
2019-03-18T22:25:09.722Z,91.80
2019-03-18T22:27:37.306Z,91.10
2019-03-18T22:30:05.083Z,91.10
2019-03-18T22:32:32.645Z,91.40
2019-03-18T22:35:00.333Z,91.50
2019-03-18T22:37:27.863Z,91.70
2019-03-18T22:39:55.424Z,92.20
2019-03-18T22:42:23.305Z,92.40
2019-03-18T22:44:50.818Z,92.70
2019-03-18T22:47:18.352Z,93.10
2019-03-18T22:49:45.900Z,93.30
2019-03-18T22:52:13.439Z,93.50
2019-03-18T22:54:41.096Z,94.00
2019-03-18T22:57:08.671Z,94.20
2019-03-18T22:59:36.185Z,94.40
2019-03-18T23:02:04.762Z,94.70
2019-03-18T23:04:32.445Z,94.70
2019-03-18T23:06:59.985Z,94.60
2019-03-18T23:09:27.620Z,94.60
2019-03-18T23:11:55.244Z,94.70
2019-03-18T23:14:23.409Z,94.50
2019-03-18T23:16:51.009Z,94.50
2019-03-18T23:19:20.891Z,94.30
2019-03-18T23:21:47.984Z,93.80
2019-03-18T23:24:15.616Z,93.50
2019-03-18T23:26:43.182Z,93.20
2019-03-18T23:29:10.740Z,93.20
2019-03-18T23:31:38.300Z,93.50
2019-03-18T23:34:05.976Z,93.60
2019-03-18T23:36:33.532Z,93.30
2019-03-18T23:39:01.072Z,92.90
2019-03-18T23:41:28.625Z,92.30
2019-03-18T23:43:56.174Z,92.40
2019-03-18T23:46:23.784Z,92.50
2019-03-18T23:48:51.327Z,92.70
2019-03-18T23:51:18.895Z,92.80
2019-03-18T23:53:46.404Z,92.70
2019-03-18T23:56:14.108Z,93.10
2019-03-18T23:58:41.760Z,93.70
